Time;durP1;ratioP1;P1;durP2;ratioP2;P2;SDS_P1;SDS_P2;PMS_P1;PMS_P2;Temp;Humidity;BMP_temperature;BMP_pressure;BME280_temperature;BME280_humidity;BME280_pressure;Samples;Min_cycle;Max_cycle;Signal;HPM_P1;HPM_P2
2021/10/29 00:01:35;;;;;;;9.57;3.80;;;;;;;;;;5094802;28;20024;-61
2021/10/29 00:04:02;;;;;;;7.53;3.70;;;;;;;;;;5094648;28;20057;-61
2021/10/29 00:06:29;;;;;;;6.47;3.57;;;;;;;;;;5075131;28;20425;-60
2021/10/29 00:08:56;;;;;;;9.23;5.50;;;;;;;;;;5088428;28;20044;-61
2021/10/29 00:11:23;;;;;;;7.80;4.47;;;;;;;;;;5089022;28;20052;-61
2021/10/29 00:13:50;;;;;;;8.63;3.73;;;;;;;;;;5089022;28;20090;-61
2021/10/29 00:16:17;;;;;;;8.97;4.90;;;;;;;;;;5089363;28;20024;-61
2021/10/29 00:18:44;;;;;;;9.40;4.83;;;;;;;;;;5094487;28;20058;-61
2021/10/29 00:21:10;;;;;;;6.83;4.00;;;;;;;;;;5094367;28;20069;-61
2021/10/29 00:23:37;;;;;;;9.47;4.00;;;;;;;;;;5094332;28;20103;-61
2021/10/29 00:26:04;;;;;;;11.13;5.17;;;;;;;;;;5094251;28;20475;-60
2021/10/29 00:28:31;;;;;;;7.67;4.07;;;;;;;;;;5092993;28;20490;-61
2021/10/29 00:30:58;;;;;;;13.93;4.57;;;;;;;;;;5088802;28;20107;-61
2021/10/29 00:33:25;;;;;;;9.50;4.07;;;;;;;;;;5088850;28;20535;-61
2021/10/29 00:35:51;;;;;;;8.90;3.43;;;;;;;;;;5088821;28;20020;-61
2021/10/29 00:38:18;;;;;;;7.77;4.27;;;;;;;;;;5088586;28;20364;-60
2021/10/29 00:40:45;;;;;;;7.03;4.23;;;;;;;;;;5093581;28;20036;-60
2021/10/29 00:43:12;;;;;;;9.53;4.83;;;;;;;;;;5093863;28;20024;-61
2021/10/29 00:45:39;;;;;;;11.43;4.83;;;;;;;;;;5093924;28;20024;-60
2021/10/29 00:48:06;;;;;;;6.50;3.97;;;;;;;;;;5093817;28;20102;-60
2021/10/29 00:50:33;;;;;;;10.07;3.87;;;;;;;;;;5093845;28;20043;-61
2021/10/29 00:53:00;;;;;;;7.00;3.90;;;;;;;;;;5087899;28;20038;-61
2021/10/29 00:55:27;;;;;;;8.87;3.47;;;;;;;;;;5088331;28;20107;-62
2021/10/29 00:57:54;;;;;;;7.57;3.90;;;;;;;;;;5088457;28;20609;-61
2021/10/29 01:00:22;;;;;;;5.83;3.90;;;;;;;;;;5088129;28;20107;-60
2021/10/29 01:02:49;;;;;;;12.50;4.40;;;;;;;;;;5092127;28;20031;-61
2021/10/29 01:05:16;;;;;;;7.03;3.83;;;;;;;;;;5093444;28;20012;-61
2021/10/29 01:07:43;;;;;;;5.73;4.00;;;;;;;;;;5093626;28;20070;-60
2021/10/29 01:10:10;;;;;;;5.87;4.00;;;;;;;;;;5093458;28;20107;-61
2021/10/29 01:12:37;;;;;;;9.40;4.63;;;;;;;;;;5075378;28;20032;-60
2021/10/29 01:15:06;;;;;;;9.47;5.57;;;;;;;;;;5088368;28;20031;-61
2021/10/29 01:17:33;;;;;;;8.83;4.73;;;;;;;;;;5087500;28;20073;-62
2021/10/29 01:20:00;;;;;;;7.93;5.17;;;;;;;;;;5087426;28;20031;-61
2021/10/29 01:22:27;;;;;;;10.47;4.70;;;;;;;;;;5086855;28;20020;-60
2021/10/29 01:24:54;;;;;;;9.60;4.63;;;;;;;;;;5091708;28;20376;-61
2021/10/29 01:27:21;;;;;;;12.37;5.50;;;;;;;;;;5093286;28;20032;-61
2021/10/29 01:29:48;;;;;;;12.27;5.67;;;;;;;;;;5093045;28;20482;-61
2021/10/29 01:32:15;;;;;;;11.80;5.50;;;;;;;;;;5093052;28;20036;-60
2021/10/29 01:34:43;;;;;;;8.97;4.87;;;;;;;;;;5092778;28;20039;-61
2021/10/29 01:37:10;;;;;;;9.93;5.23;;;;;;;;;;5088176;28;20020;-62
2021/10/29 01:39:38;;;;;;;9.97;4.70;;;;;;;;;;5087624;28;20544;-61
2021/10/29 01:42:05;;;;;;;8.77;5.53;;;;;;;;;;5087391;28;20111;-60
2021/10/29 01:44:32;;;;;;;7.57;4.83;;;;;;;;;;5087260;28;20028;-60
2021/10/29 01:46:59;;;;;;;11.93;4.60;;;;;;;;;;5090844;28;20016;-60
2021/10/29 01:49:25;;;;;;;8.47;4.57;;;;;;;;;;5092903;28;20023;-60
2021/10/29 01:51:53;;;;;;;7.77;4.93;;;;;;;;;;5074325;28;20026;-61
2021/10/29 01:54:20;;;;;;;9.33;5.40;;;;;;;;;;5092490;28;20421;-61
2021/10/29 01:56:47;;;;;;;10.23;5.40;;;;;;;;;;5092406;28;20107;-60
2021/10/29 01:59:14;;;;;;;8.60;5.37;;;;;;;;;;5088957;28;20059;-61
2021/10/29 02:01:41;;;;;;;11.70;5.17;;;;;;;;;;5087232;28;20028;-60
2021/10/29 02:04:08;;;;;;;9.63;5.40;;;;;;;;;;5087124;28;20394;-60
2021/10/29 02:06:35;;;;;;;10.00;5.53;;;;;;;;;;5087314;28;20062;-61
2021/10/29 02:09:02;;;;;;;9.10;5.07;;;;;;;;;;5089393;28;20137;-61
2021/10/29 02:11:29;;;;;;;8.73;5.03;;;;;;;;;;5092062;28;20371;-60
2021/10/29 02:13:56;;;;;;;11.47;5.37;;;;;;;;;;5092389;28;20028;-61
2021/10/29 02:16:23;;;;;;;11.87;5.87;;;;;;;;;;5092306;28;20027;-61
2021/10/29 02:18:50;;;;;;;10.83;5.00;;;;;;;;;;5092341;28;20029;-61
2021/10/29 02:21:17;;;;;;;10.20;5.70;;;;;;;;;;5089142;28;20040;-61
2021/10/29 02:23:44;;;;;;;9.70;5.40;;;;;;;;;;5086973;28;20036;-61
2021/10/29 02:26:11;;;;;;;7.43;4.73;;;;;;;;;;5086462;28;20038;-60
2021/10/29 02:28:38;;;;;;;12.90;4.97;;;;;;;;;;5086799;28;20395;-60
2021/10/29 02:31:04;;;;;;;17.03;6.07;;;;;;;;;;5089063;28;20036;-60
2021/10/29 02:33:31;;;;;;;10.90;6.00;;;;;;;;;;5094870;28;20058;-61
2021/10/29 02:35:59;;;;;;;8.83;5.20;;;;;;;;;;5096353;28;20032;-60
2021/10/29 02:38:26;;;;;;;10.73;4.77;;;;;;;;;;5096488;28;20027;-60
2021/10/29 02:40:52;;;;;;;9.57;5.17;;;;;;;;;;5096391;28;20502;-61
2021/10/29 02:43:19;;;;;;;8.30;5.53;;;;;;;;;;5093492;28;20024;-60
2021/10/29 02:45:46;;;;;;;10.57;5.73;;;;;;;;;;5090684;28;20024;-60
2021/10/29 02:48:13;;;;;;;14.33;5.53;;;;;;;;;;5090905;28;20032;-60
2021/10/29 02:50:42;;;;;;;13.50;5.63;;;;;;;;;;5090683;28;20027;-60
2021/10/29 02:53:09;;;;;;;15.17;5.07;;;;;;;;;;5092410;28;20032;-61
2021/10/29 02:55:36;;;;;;;18.10;6.23;;;;;;;;;;5095538;28;20093;-60
2021/10/29 02:58:04;;;;;;;11.00;6.23;;;;;;;;;;5096076;28;20074;-60
2021/10/29 03:00:33;;;;;;;12.67;6.00;;;;;;;;;;5095601;28;20103;-60
2021/10/29 03:03:00;;;;;;;17.87;6.30;;;;;;;;;;5095647;28;20032;-60
2021/10/29 03:05:27;;;;;;;9.23;5.93;;;;;;;;;;5094136;28;20859;-60
2021/10/29 03:07:53;;;;;;;12.40;6.73;;;;;;;;;;5090717;28;20102;-60
2021/10/29 03:10:20;;;;;;;16.27;5.93;;;;;;;;;;5090299;28;20032;-61
2021/10/29 03:12:47;;;;;;;7.83;5.37;;;;;;;;;;5072178;28;20036;-60
2021/10/29 03:15:16;;;;;;;10.43;5.87;;;;;;;;;;5091187;28;20056;-60
2021/10/29 03:17:43;;;;;;;8.83;6.00;;;;;;;;;;5095264;28;20020;-61
2021/10/29 03:20:10;;;;;;;16.30;6.20;;;;;;;;;;5095468;28;20028;-60
2021/10/29 03:22:37;;;;;;;12.50;7.07;;;;;;;;;;5095577;28;20024;-61
2021/10/29 03:25:05;;;;;;;9.90;6.40;;;;;;;;;;5095130;28;20499;-60
2021/10/29 03:27:32;;;;;;;12.10;6.57;;;;;;;;;;5094185;28;20117;-60
2021/10/29 03:30:00;;;;;;;11.33;6.40;;;;;;;;;;5090079;28;20027;-60
2021/10/29 03:32:27;;;;;;;9.73;6.23;;;;;;;;;;5089991;28;20036;-61
2021/10/29 03:34:57;;;;;;;15.03;6.33;;;;;;;;;;5089504;28;20874;-60
2021/10/29 03:37:55;;;;;;;10.63;6.30;;;;;;;;;;5090576;28;20133;-60
2021/10/29 03:45:50;;;;;;;;;;;;;;;;;;5094832;28;20443;-61
2021/10/29 03:48:25;;;;;;;14.57;7.20;;;;;;;;;;5093155;28;19908;-60
2021/10/29 03:51:13;;;;;;;9.23;5.70;;;;;;;;;;5091573;28;20039;-61
2021/10/29 03:56:16;;;;;;;16.37;8.00;;;;;;;;;;5089125;28;20067;-60
2021/10/29 03:58:44;;;;;;;13.87;7.97;;;;;;;;;;5089446;28;20027;-60
2021/10/29 04:01:11;;;;;;;20.87;8.43;;;;;;;;;;5093318;28;20040;-60
2021/10/29 04:03:38;;;;;;;18.10;7.67;;;;;;;;;;5094302;28;20027;-60
2021/10/29 04:06:05;;;;;;;12.20;7.03;;;;;;;;;;5076978;28;20127;-60
2021/10/29 04:08:33;;;;;;;13.93;8.30;;;;;;;;;;5095144;28;20375;-60
2021/10/29 04:11:00;;;;;;;13.87;7.67;;;;;;;;;;5094146;28;20028;-61
2021/10/29 04:13:33;;;;;;;14.33;7.23;;;;;;;;;;5090258;28;20112;-60
2021/10/29 04:16:00;;;;;;;10.60;7.73;;;;;;;;;;5089626;28;20581;-61
2021/10/29 04:18:27;;;;;;;9.43;7.53;;;;;;;;;;5089429;28;20032;-60
2021/10/29 04:20:54;;;;;;;10.03;7.20;;;;;;;;;;5089366;28;20383;-61
2021/10/29 04:23:21;;;;;;;10.23;6.70;;;;;;;;;;5092866;28;20056;-60
2021/10/29 04:25:50;;;;;;;9.73;6.87;;;;;;;;;;5094208;28;20036;-60
2021/10/29 04:28:17;;;;;;;10.53;6.97;;;;;;;;;;5093807;28;20058;-61
2021/10/29 04:30:45;;;;;;;11.63;6.90;;;;;;;;;;5094048;28;20039;-61
2021/10/29 04:33:12;;;;;;;9.37;6.40;;;;;;;;;;5075782;28;20040;-59
2021/10/29 04:35:40;;;;;;;20.47;6.73;;;;;;;;;;5090788;28;20589;-60
2021/10/29 04:38:08;;;;;;;14.00;6.27;;;;;;;;;;5089256;28;20363;-59
2021/10/29 04:40:42;;;;;;;11.20;6.57;;;;;;;;;;5089154;28;20107;-59
2021/10/29 04:43:11;;;;;;;10.02;6.40;;;;;;;;;;5088444;28;20076;-60
2021/10/29 04:45:38;;;;;;;10.13;6.50;;;;;;;;;;5090997;28;20032;-59
2021/10/29 04:48:06;;;;;;;12.47;5.80;;;;;;;;;;5094155;28;20020;-58
2021/10/29 04:50:36;;;;;;;11.50;7.30;;;;;;;;;;5094140;28;20028;-59
2021/10/29 04:53:03;;;;;;;10.63;6.90;;;;;;;;;;5094237;28;20447;-59
2021/10/29 04:55:30;;;;;;;9.47;6.00;;;;;;;;;;5093209;28;20052;-61
2021/10/29 04:57:57;;;;;;;10.83;6.63;;;;;;;;;;5089837;28;20028;-59
2021/10/29 05:00:24;;;;;;;8.80;6.27;;;;;;;;;;5088552;28;20383;-59
2021/10/29 05:02:54;;;;;;;10.30;6.30;;;;;;;;;;5088809;28;20023;-59
2021/10/29 05:05:21;;;;;;;9.10;5.13;;;;;;;;;;5088287;28;20032;-59
2021/10/29 05:07:48;;;;;;;8.37;5.90;;;;;;;;;;5091460;28;20032;-59
2021/10/29 05:10:15;;;;;;;7.83;5.80;;;;;;;;;;5093780;28;20016;-59
2021/10/29 05:12:43;;;;;;;8.57;5.83;;;;;;;;;;5093179;28;20062;-59
2021/10/29 05:15:11;;;;;;;7.47;5.73;;;;;;;;;;5093080;28;20020;-59
2021/10/29 05:17:38;;;;;;;12.17;6.27;;;;;;;;;;5093016;28;20093;-59
2021/10/29 05:20:06;;;;;;;10.20;5.97;;;;;;;;;;5090346;28;20042;-59
2021/10/29 05:22:32;;;;;;;7.97;5.87;;;;;;;;;;5088354;28;20039;-59
2021/10/29 05:24:59;;;;;;;11.73;5.33;;;;;;;;;;5088288;28;20060;-59
2021/10/29 05:27:26;;;;;;;10.13;6.07;;;;;;;;;;5088076;28;20028;-59
2021/10/29 05:29:53;;;;;;;10.13;6.10;;;;;;;;;;5090597;28;20016;-59
2021/10/29 05:32:19;;;;;;;8.27;5.30;;;;;;;;;;5093247;28;20036;-59
2021/10/29 05:34:46;;;;;;;8.40;4.87;;;;;;;;;;5092772;28;20020;-59
2021/10/29 05:37:13;;;;;;;9.93;5.37;;;;;;;;;;5093424;28;20020;-60
2021/10/29 05:39:40;;;;;;;10.27;6.23;;;;;;;;;;5092821;28;20023;-59
2021/10/29 05:42:07;;;;;;;7.63;5.63;;;;;;;;;;5090278;28;20028;-59
2021/10/29 05:44:33;;;;;;;7.43;5.50;;;;;;;;;;5087888;28;20074;-59
2021/10/29 05:47:00;;;;;;;11.77;5.73;;;;;;;;;;5087592;28;20032;-59
2021/10/29 05:49:28;;;;;;;8.43;5.80;;;;;;;;;;5088084;28;20129;-59
2021/10/29 05:51:56;;;;;;;10.50;5.60;;;;;;;;;;5089525;28;20036;-59
2021/10/29 05:57:03;;;;;;;8.80;5.50;;;;;;;;;;5092805;28;20414;-60
2021/10/29 05:59:33;;;;;;;7.87;5.00;;;;;;;;;;5092340;28;20045;-60
2021/10/29 06:02:00;;;;;;;8.07;4.47;;;;;;;;;;5092624;28;20028;-58
2021/10/29 06:04:27;;;;;;;8.50;4.33;;;;;;;;;;5089287;28;20053;-59
2021/10/29 06:06:56;;;;;;;4.80;3.03;;;;;;;;;;5086994;28;20021;-59
2021/10/29 06:09:22;;;;;;;4.30;2.90;;;;;;;;;;5087372;28;20020;-59
2021/10/29 06:11:49;;;;;;;5.93;3.40;;;;;;;;;;5087629;28;20020;-59
2021/10/29 06:14:17;;;;;;;6.67;3.07;;;;;;;;;;5089365;28;20483;-59
2021/10/29 06:16:44;;;;;;;6.13;2.87;;;;;;;;;;5092606;28;20024;-58
2021/10/29 06:19:11;;;;;;;6.90;3.80;;;;;;;;;;5092720;28;20028;-59
2021/10/29 06:21:51;;;;;;;10.60;4.20;;;;;;;;;;5092586;28;20029;-58
2021/10/29 06:24:17;;;;;;;6.53;4.13;;;;;;;;;;5092259;28;20039;-59
2021/10/29 06:27:00;;;;;;;7.33;4.13;;;;;;;;;;5089289;28;20038;-58
2021/10/29 06:29:27;;;;;;;9.27;4.07;;;;;;;;;;5087454;28;20020;-58
2021/10/29 06:31:54;;;;;;;4.23;2.80;;;;;;;;;;5087230;28;20016;-59
2021/10/29 06:34:21;;;;;;;7.70;2.90;;;;;;;;;;5087489;28;20027;-59
2021/10/29 06:36:48;;;;;;;4.27;2.80;;;;;;;;;;5090095;28;20583;-60
2021/10/29 06:39:15;;;;;;;6.60;3.10;;;;;;;;;;5092060;28;20043;-58
2021/10/29 06:41:41;;;;;;;4.07;1.63;;;;;;;;;;5091966;28;20467;-59
2021/10/29 06:44:21;;;;;;;3.43;1.57;;;;;;;;;;5092007;28;20031;-58
2021/10/29 06:47:30;;;;;;;2.03;0.90;;;;;;;;;;5092056;28;20036;-59
2021/10/29 07:00:39;;;;;;;4.95;2.20;;;;;;;;;;5092123;28;20128;-58
2021/10/29 07:11:41;;;;;;;3.78;1.42;;;;;;;;;;5089056;28;20031;-58
2021/10/29 07:41:39;;;;;;;2.90;1.40;;;;;;;;;;5090199;28;20097;-58
2021/10/29 07:44:18;;;;;;;3.40;1.43;;;;;;;;;;5094176;28;20035;-58
2021/10/29 07:46:45;;;;;;;4.37;1.60;;;;;;;;;;5095268;28;20379;-58
2021/10/29 07:49:12;;;;;;;2.00;1.33;;;;;;;;;;5094961;28;20024;-58
2021/10/29 07:51:39;;;;;;;4.93;1.40;;;;;;;;;;5095035;28;20016;-58
2021/10/29 07:54:07;;;;;;;1.90;1.03;;;;;;;;;;5094981;28;20089;-58
2021/10/29 07:56:34;;;;;;;3.57;1.73;;;;;;;;;;5090521;28;20038;-59
2021/10/29 07:59:01;;;;;;;1.60;1.03;;;;;;;;;;5089635;28;20064;-59
2021/10/29 08:01:28;;;;;;;2.83;1.20;;;;;;;;;;5089502;28;20032;-59
2021/10/29 08:03:55;;;;;;;1.57;0.90;;;;;;;;;;5089944;28;20058;-59
2021/10/29 08:06:22;;;;;;;1.57;0.70;;;;;;;;;;5093821;28;20375;-58
2021/10/29 08:08:50;;;;;;;3.50;0.90;;;;;;;;;;5094839;28;20024;-58
2021/10/29 08:11:17;;;;;;;1.47;0.73;;;;;;;;;;5094396;28;20059;-58
2021/10/29 08:13:44;;;;;;;2.60;0.50;;;;;;;;;;5094465;28;20032;-58
2021/10/29 08:16:11;;;;;;;3.90;0.60;;;;;;;;;;5094453;28;20025;-58
2021/10/29 08:18:44;;;;;;;1.00;0.60;;;;;;;;;;5090300;28;20058;-58
2021/10/29 08:21:13;;;;;;;0.77;0.43;;;;;;;;;;5089276;28;20024;-58
2021/10/29 08:23:41;;;;;;;1.77;0.50;;;;;;;;;;5089312;28;20036;-58
2021/10/29 08:26:09;;;;;;;1.50;0.70;;;;;;;;;;5088456;28;20032;-58
2021/10/29 08:28:35;;;;;;;1.23;0.67;;;;;;;;;;5093084;28;20028;-59
2021/10/29 08:31:02;;;;;;;0.60;0.33;;;;;;;;;;5093843;28;20028;-58
2021/10/29 08:33:29;;;;;;;0.40;0.30;;;;;;;;;;5094360;28;20087;-59
2021/10/29 08:35:56;;;;;;;0.53;0.40;;;;;;;;;;5094170;28;20103;-58
2021/10/29 08:38:24;;;;;;;0.50;0.33;;;;;;;;;;5094279;28;20029;-58
2021/10/29 08:40:51;;;;;;;0.87;0.43;;;;;;;;;;5089900;28;20488;-58
2021/10/29 08:43:19;;;;;;;0.30;0.10;;;;;;;;;;5088817;28;20552;-59
2021/10/29 08:45:46;;;;;;;0.33;0.20;;;;;;;;;;5088626;28;20142;-58
2021/10/29 08:48:13;;;;;;;0.67;0.20;;;;;;;;;;5089186;28;20020;-58
2021/10/29 08:50:40;;;;;;;0.77;0.10;;;;;;;;;;5092657;28;20102;-58
2021/10/29 08:53:07;;;;;;;0.10;0.10;;;;;;;;;;5093858;28;20110;-58
2021/10/29 08:55:35;;;;;;;0.60;0.30;;;;;;;;;;5093853;28;20375;-58
2021/10/29 08:58:05;;;;;;;0.63;0.20;;;;;;;;;;5093489;28;20032;-58
2021/10/29 09:00:40;;;;;;;0.40;0.40;;;;;;;;;;5093286;28;20492;-58
2021/10/29 09:03:19;;;;;;;;;;;;;;;;;;5090066;28;20123;-58
2021/10/29 09:06:01;;;;;;;0.43;0.20;;;;;;;;;;5088661;28;19925;-59
2021/10/29 09:08:54;;;;;;;0.73;0.23;;;;;;;;;;5088256;28;20038;-58
2021/10/29 09:17:03;;;;;;;0.53;0.20;;;;;;;;;;5093541;28;20034;-59
2021/10/29 09:31:24;;;;;;;1.13;0.30;;;;;;;;;;5088544;28;20035;-58
2021/10/29 09:33:52;;;;;;;0.40;0.20;;;;;;;;;;5088320;28;20089;-58
2021/10/29 09:36:26;;;;;;;1.93;0.20;;;;;;;;;;5092907;28;20028;-58
2021/10/29 09:39:08;;;;;;;0.53;0.20;;;;;;;;;;5093086;28;20032;-58
2021/10/29 09:41:36;;;;;;;1.60;0.60;;;;;;;;;;5092518;28;20031;-59
2021/10/29 09:44:07;;;;;;;1.03;0.40;;;;;;;;;;5092712;28;20045;-58
2021/10/29 09:46:45;;;;;;;0.53;0.20;;;;;;;;;;5090455;28;20031;-58
2021/10/29 09:49:24;;;;;;;2.00;0.80;;;;;;;;;;5087736;28;20557;-58
2021/10/29 09:52:05;;;;;;;2.73;0.43;;;;;;;;;;5087526;28;20495;-58
2021/10/29 09:54:38;;;;;;;0.63;0.40;;;;;;;;;;5087912;28;20168;-58
2021/10/29 09:57:07;;;;;;;0.57;0.20;;;;;;;;;;5090519;28;20062;-58
2021/10/29 09:59:34;;;;;;;1.13;0.30;;;;;;;;;;5092544;28;20035;-58
2021/10/29 10:02:02;;;;;;;0.53;0.30;;;;;;;;;;5092667;28;20103;-58
2021/10/29 10:04:30;;;;;;;0.30;0.07;;;;;;;;;;5092467;28;20363;-58
2021/10/29 10:06:59;;;;;;;1.07;0.30;;;;;;;;;;5092685;28;20629;-58
2021/10/29 10:09:26;;;;;;;0.77;0.23;;;;;;;;;;5088982;28;20039;-58
2021/10/29 10:11:53;;;;;;;0.80;0.17;;;;;;;;;;5087612;28;20024;-59
2021/10/29 10:14:20;;;;;;;0.00;0.00;;;;;;;;;;5087601;28;20028;-58
2021/10/29 10:16:48;;;;;;;0.60;0.20;;;;;;;;;;5087647;28;20105;-58
2021/10/29 10:19:16;;;;;;;0.33;0.20;;;;;;;;;;5089818;28;20142;-59
2021/10/29 10:21:45;;;;;;;2.90;0.30;;;;;;;;;;5092248;28;20020;-59
2021/10/29 10:24:15;;;;;;;0.20;0.20;;;;;;;;;;5092469;28;20031;-58
2021/10/29 10:45:51;;;;;;;0.20;0.10;;;;;;;;;;5091972;28;20077;-58
2021/10/29 10:48:27;;;;;;;1.80;1.10;;;;;;;;;;5092224;28;20027;-58
2021/10/29 10:51:00;;;;;;;0.30;0.20;;;;;;;;;;5092284;28;20494;-58
2021/10/29 10:53:45;;;;;;;1.33;0.50;;;;;;;;;;5090782;28;20123;-58
2021/10/29 10:58:53;;;;;;;0.20;0.10;;;;;;;;;;5090962;28;20036;-58
2021/10/29 11:06:56;;;;;;;1.40;0.30;;;;;;;;;;5096290;28;20032;-58
2021/10/29 11:10:04;;;;;;;0.17;0.10;;;;;;;;;;5095684;28;20024;-58
2021/10/29 11:12:44;;;;;;;9.00;0.50;;;;;;;;;;5095757;28;20040;-58
2021/10/29 11:15:15;;;;;;;0.70;0.20;;;;;;;;;;5094812;28;20672;-58
2021/10/29 11:17:50;;;;;;;13.13;1.03;;;;;;;;;;5090567;28;20024;-58
2021/10/29 11:20:37;;;;;;;1.23;0.30;;;;;;;;;;5090809;28;20031;-58
2021/10/29 11:23:06;;;;;;;2.63;0.30;;;;;;;;;;5089846;28;20047;-58
2021/10/29 11:25:49;;;;;;;1.90;0.30;;;;;;;;;;5092117;28;20445;-58
2021/10/29 11:28:20;;;;;;;0.10;0.10;;;;;;;;;;5095558;28;20024;-58
2021/10/29 11:30:51;;;;;;;0.80;0.40;;;;;;;;;;5095267;28;20077;-58
2021/10/29 11:33:21;;;;;;;0.33;0.20;;;;;;;;;;5095363;28;20057;-58
2021/10/29 11:36:09;;;;;;;0.90;0.50;;;;;;;;;;5095439;28;20058;-58
2021/10/29 11:38:39;;;;;;;1.13;0.30;;;;;;;;;;5091248;28;20399;-58
2021/10/29 11:41:11;;;;;;;0.30;0.20;;;;;;;;;;5089884;28;20028;-58
2021/10/29 11:43:42;;;;;;;0.70;0.43;;;;;;;;;;5090505;28;20030;-58
2021/10/29 11:46:13;;;;;;;1.43;0.50;;;;;;;;;;5090442;28;20020;-58
2021/10/29 11:48:53;;;;;;;2.70;0.63;;;;;;;;;;5093109;28;20482;-58
2021/10/29 11:51:22;;;;;;;0.50;0.30;;;;;;;;;;5094629;28;20152;-58
2021/10/29 11:53:55;;;;;;;0.80;0.40;;;;;;;;;;5094399;28;20044;-58
2021/10/29 11:56:39;;;;;;;1.67;0.50;;;;;;;;;;5095098;28;20055;-58
2021/10/29 12:07:26;;;;;;;1.10;0.50;;;;;;;;;;5089642;28;20084;-58
2021/10/29 12:09:57;;;;;;;1.00;0.50;;;;;;;;;;5090870;28;20035;-58
2021/10/29 12:12:29;;;;;;;1.30;0.70;;;;;;;;;;5094908;28;20031;-58
2021/10/29 12:15:07;;;;;;;1.00;0.60;;;;;;;;;;5094070;28;20040;-58
2021/10/29 12:20:37;;;;;;;1.03;0.53;;;;;;;;;;5080123;28;20028;-58
2021/10/29 12:23:16;;;;;;;2.93;0.60;;;;;;;;;;5090312;28;20055;-58
2021/10/29 12:28:29;;;;;;;1.57;0.90;;;;;;;;;;5089606;28;20040;-58
2021/10/29 12:31:07;;;;;;;1.40;0.60;;;;;;;;;;5089219;28;20479;-58
2021/10/29 12:53:19;;;;;;;2.90;1.20;;;;;;;;;;5088975;28;20078;-58
2021/10/29 13:04:07;;;;;;;2.03;1.08;;;;;;;;;;5093770;28;20493;-58
2021/10/29 13:06:38;;;;;;;2.53;1.10;;;;;;;;;;5092145;28;20077;-58
2021/10/29 13:09:19;;;;;;;4.20;1.37;;;;;;;;;;5088598;28;20383;-58
2021/10/29 13:11:51;;;;;;;5.33;1.60;;;;;;;;;;5088257;28;20024;-59
2021/10/29 13:14:29;;;;;;;2.83;1.50;;;;;;;;;;5087820;28;20376;-58
2021/10/29 13:16:57;;;;;;;2.87;1.70;;;;;;;;;;5089679;28;20845;-58
2021/10/29 13:24:52;;;;;;;4.20;1.93;;;;;;;;;;5093005;28;20032;-58
2021/10/29 13:27:55;;;;;;;4.13;1.83;;;;;;;;;;5093038;28;20039;-58
2021/10/29 13:36:23;;;;;;;8.37;2.27;;;;;;;;;;5088316;28;19911;-59
2021/10/29 13:53:10;;;;;;;3.70;1.17;;;;;;;;;;5067820;28;20475;-59
2021/10/29 14:01:14;;;;;;;9.30;2.10;;;;;;;;;;5072142;28;20500;-59
2021/10/29 14:28:16;;;;;;;6.17;2.87;;;;;;;;;;5040639;28;20086;-59
2021/10/29 14:30:54;;;;;;;6.30;2.57;;;;;;;;;;5092304;28;20487;-59
2021/10/29 14:33:29;;;;;;;6.63;2.47;;;;;;;;;;5092330;28;20043;-59
2021/10/29 14:35:58;;;;;;;7.38;2.47;;;;;;;;;;5089810;28;20504;-59
2021/10/29 14:38:42;;;;;;;4.83;2.37;;;;;;;;;;5086953;28;20044;-59
2021/10/29 14:41:27;;;;;;;6.37;3.13;;;;;;;;;;5087146;28;20383;-59
2021/10/29 14:44:02;;;;;;;6.00;1.85;;;;;;;;;;5087236;28;20035;-59
2021/10/29 14:47:11;;;;;;;2.93;1.70;;;;;;;;;;5090034;28;20063;-59
2021/10/29 15:05:42;;;;;;;3.73;1.23;;;;;;;;;;5086228;28;20036;-60
2021/10/29 15:16:42;;;;;;;2.40;0.40;;;;;;;;;;5091046;28;20124;-59
2021/10/29 15:29:55;;;;;;;0.53;0.37;;;;;;;;;;5087100;28;19911;-60
2021/10/29 15:43:49;;;;;;;1.33;0.67;;;;;;;;;;5090767;28;20047;-60
2021/10/29 15:46:20;;;;;;;6.63;1.40;;;;;;;;;;5089692;28;20070;-61
2021/10/29 15:48:52;;;;;;;2.20;1.00;;;;;;;;;;5089907;28;20035;-60
2021/10/29 15:51:19;;;;;;;5.43;1.83;;;;;;;;;;5089453;28;20085;-60
2021/10/29 15:53:46;;;;;;;3.23;1.50;;;;;;;;;;5094055;28;20028;-60
2021/10/29 15:59:19;;;;;;;4.03;1.63;;;;;;;;;;5095323;28;20038;-60
2021/10/29 16:18:08;;;;;;;1.88;0.90;;;;;;;;;;5094636;28;20074;-60
2021/10/29 16:20:35;;;;;;;3.88;1.17;;;;;;;;;;5094519;28;20020;-60
2021/10/29 16:23:03;;;;;;;1.27;0.63;;;;;;;;;;5094254;28;20485;-60
2021/10/29 16:25:36;;;;;;;1.40;0.50;;;;;;;;;;5093958;28;20093;-60
2021/10/29 16:28:05;;;;;;;1.33;0.60;;;;;;;;;;5090172;28;20032;-60
2021/10/29 16:30:33;;;;;;;1.55;0.50;;;;;;;;;;5088852;28;20386;-60
2021/10/29 16:35:28;;;;;;;1.20;0.45;;;;;;;;;;5088959;28;20111;-60
2021/10/29 16:37:55;;;;;;;0.65;0.50;;;;;;;;;;5092138;28;20027;-60
2021/10/29 16:40:22;;;;;;;5.05;0.32;;;;;;;;;;5093683;28;20040;-60
2021/10/29 16:42:51;;;;;;;1.00;0.50;;;;;;;;;;5093812;28;20027;-60
2021/10/29 16:45:19;;;;;;;0.90;0.52;;;;;;;;;;5094222;28;20035;-60
2021/10/29 16:47:46;;;;;;;0.70;0.47;;;;;;;;;;5093968;28;20027;-60
2021/10/29 16:50:13;;;;;;;3.22;0.68;;;;;;;;;;5090064;28;20024;-60
2021/10/29 16:52:41;;;;;;;2.30;0.40;;;;;;;;;;5087836;28;20757;-60
2021/10/29 16:55:08;;;;;;;2.22;0.30;;;;;;;;;;5088120;28;20383;-60
2021/10/29 16:57:35;;;;;;;1.55;0.60;;;;;;;;;;5088465;28;20013;-60
2021/10/29 17:00:03;;;;;;;0.95;0.60;;;;;;;;;;5091411;28;20020;-60
2021/10/29 17:02:30;;;;;;;1.05;0.70;;;;;;;;;;5093810;28;20020;-60
2021/10/29 17:04:57;;;;;;;2.25;0.60;;;;;;;;;;5093071;28;20027;-59
2021/10/29 17:07:24;;;;;;;0.73;0.43;;;;;;;;;;5093476;28;20024;-60
2021/10/29 17:09:52;;;;;;;0.50;0.40;;;;;;;;;;5093838;28;20030;-60
2021/10/29 17:12:21;;;;;;;1.05;0.45;;;;;;;;;;5089757;28;20476;-60
2021/10/29 17:14:48;;;;;;;9.50;1.73;;;;;;;;;;5088033;28;20144;-60
2021/10/29 17:17:17;;;;;;;3.88;1.50;;;;;;;;;;5087757;28;20067;-60
2021/10/29 17:19:44;;;;;;;2.83;1.20;;;;;;;;;;5088115;28;20394;-60
2021/10/29 17:22:11;;;;;;;2.95;0.98;;;;;;;;;;5090772;28;20471;-60
2021/10/29 17:24:38;;;;;;;1.00;0.70;;;;;;;;;;5093326;28;20020;-60
2021/10/29 17:27:05;;;;;;;1.42;0.80;;;;;;;;;;5092999;28;20479;-61
2021/10/29 17:29:33;;;;;;;1.48;0.50;;;;;;;;;;5093125;28;20031;-60
2021/10/29 17:32:01;;;;;;;0.60;0.40;;;;;;;;;;5092570;28;20043;-60
2021/10/29 17:34:28;;;;;;;3.60;0.93;;;;;;;;;;5090067;28;20036;-61
2021/10/29 17:36:55;;;;;;;3.03;1.20;;;;;;;;;;5087762;28;20437;-61
2021/10/29 17:39:23;;;;;;;4.35;1.00;;;;;;;;;;5087703;28;20027;-61
2021/10/29 17:41:50;;;;;;;1.60;0.88;;;;;;;;;;5087178;28;20032;-60
2021/10/29 17:44:17;;;;;;;2.42;0.70;;;;;;;;;;5090327;28;20024;-60
2021/10/29 17:46:43;;;;;;;1.00;0.63;;;;;;;;;;5092863;28;20024;-60
2021/10/29 17:49:12;;;;;;;2.58;0.95;;;;;;;;;;5092785;28;20027;-60
2021/10/29 17:51:38;;;;;;;1.35;0.90;;;;;;;;;;5092769;28;20036;-60
2021/10/29 17:54:06;;;;;;;3.03;1.90;;;;;;;;;;5092516;28;20089;-60
2021/10/29 17:56:32;;;;;;;3.17;1.35;;;;;;;;;;5090027;28;20028;-60
2021/10/29 17:58:59;;;;;;;2.45;1.27;;;;;;;;;;5087236;28;20024;-60
2021/10/29 18:01:26;;;;;;;4.15;1.17;;;;;;;;;;5087603;28;20463;-60
2021/10/29 18:03:53;;;;;;;4.05;0.93;;;;;;;;;;5086790;28;20024;-60
2021/10/29 18:06:19;;;;;;;1.92;1.20;;;;;;;;;;5088871;28;20099;-60
2021/10/29 18:08:54;;;;;;;4.35;0.85;;;;;;;;;;5092690;28;20028;-60
2021/10/29 18:11:20;;;;;;;;;;;;;;;;;;5092910;28;20478;-60
2021/10/29 18:13:47;;;;;;;2.55;1.60;;;;;;;;;;5091946;28;19912;-60
2021/10/29 18:16:14;;;;;;;5.03;1.50;;;;;;;;;;5092421;28;20078;-60
2021/10/29 18:18:41;;;;;;;5.28;1.80;;;;;;;;;;5089792;28;20036;-60
2021/10/29 18:21:09;;;;;;;3.28;1.48;;;;;;;;;;5087298;28;20024;-60
2021/10/29 18:23:36;;;;;;;3.10;1.30;;;;;;;;;;5086918;28;20035;-60
2021/10/29 18:26:03;;;;;;;3.47;1.00;;;;;;;;;;5086874;28;20044;-60
2021/10/29 18:28:30;;;;;;;3.75;1.00;;;;;;;;;;5088602;28;20027;-60
2021/10/29 18:31:16;;;;;;;1.35;0.77;;;;;;;;;;5092177;28;20024;-60
2021/10/29 18:33:42;;;;;;;9.90;1.42;;;;;;;;;;5092140;28;20505;-60
2021/10/29 18:36:09;;;;;;;1.65;1.08;;;;;;;;;;5092034;28;20059;-60
2021/10/29 18:38:36;;;;;;;1.83;0.82;;;;;;;;;;5092275;28;20024;-60
2021/10/29 18:41:03;;;;;;;2.90;0.90;;;;;;;;;;5089570;28;20511;-60
2021/10/29 18:43:30;;;;;;;2.65;1.25;;;;;;;;;;5086995;28;20028;-60
2021/10/29 18:45:57;;;;;;;4.93;1.50;;;;;;;;;;5087036;28;20028;-60
2021/10/29 18:48:24;;;;;;;2.25;1.00;;;;;;;;;;5086680;28;20031;-60
2021/10/29 18:50:51;;;;;;;3.70;0.95;;;;;;;;;;5088736;28;20103;-60
2021/10/29 18:53:18;;;;;;;6.22;3.90;;;;;;;;;;5092189;28;20491;-60
2021/10/29 18:55:45;;;;;;;3.25;1.70;;;;;;;;;;5092792;28;20077;-60
2021/10/29 18:58:11;;;;;;;2.45;1.08;;;;;;;;;;5090992;28;20352;-60
2021/10/29 19:00:38;;;;;;;2.70;1.20;;;;;;;;;;5092796;28;20446;-60
2021/10/29 19:03:05;;;;;;;11.25;2.20;;;;;;;;;;5089649;28;20036;-62
2021/10/29 19:05:33;;;;;;;2.47;0.70;;;;;;;;;;5087012;28;20384;-60
2021/10/29 19:08:03;;;;;;;2.28;0.77;;;;;;;;;;5086966;28;20130;-60
2021/10/29 19:10:33;;;;;;;1.63;0.80;;;;;;;;;;5086589;28;20032;-60
2021/10/29 19:13:05;;;;;;;1.45;0.70;;;;;;;;;;5087744;28;20040;-60
2021/10/29 19:15:32;;;;;;;1.52;0.80;;;;;;;;;;5094266;28;20020;-60
2021/10/29 19:17:59;;;;;;;1.48;0.90;;;;;;;;;;5095421;28;20024;-60
2021/10/29 19:20:26;;;;;;;1.05;0.60;;;;;;;;;;5095588;28;20020;-60
2021/10/29 19:22:52;;;;;;;0.68;0.50;;;;;;;;;;5095678;28;20033;-61